Portada
METAR-TAF:

METAR-TAF

Aeroports :

Ranong, Tailàndia

latitud: 09-59N, longitud: 098-37E, altitud: 7 m

Observació

L'informe es va fer fa 31 minuts, a les 09:00 UTC
Vent 7 kt del Oest, variant entre Sud-Oest i Oest/Nord-Oest
Temperatura 31°C
Humitat 71%
Pressió 1009 hPa
Visibilitat 10 km o més
Núvols disperses a una alçada de 2500 ft

METAR: VTSR 190900Z 26007KT 230V290 9999 SCT025 31/25 Q1009 NOSIG

Hora: 16:31 (09:31 UTC)

Pronòstic

L'informe es va fer fa 4 hores i 31 minuts, a les 05:00 UTC
Pronòstic vàlid del 19 a les 06 UTC al 20 a les 06 UTC
Vent 6 kt del Oest
Visibilitat 10 km o més
Escasses núvols a una alçada de 2000 ft
Evolucionant progressivament
l' 19 a les 14 UTC al 19 a les 16 UTC
Vent kt del Nord
Evolucionant progressivament
l' 20 a les 04 UTC al 20 a les 06 UTC
Vent 6 kt del Oest

TAF: VTSR 190500Z 1906/2006 26006KT 9999 FEW020 BECMG 1914/1916 00000KT BECMG 2004/2006 26006KT

Observacions i pronòstics meteorològics de més de 4000 aeroports (METAR i TAF).

Les estacions disponibles són els punts grocs i vermells al mapa.

Posi el ratolí al punt desitjat per veure el nom de l'estació.

Feu clic per veure les observacions i els pronòstics meteorològics.

Per canviar el mapa: feu clic els botons verds amb una creu de color negre per apropar; al botó verd amb un guió per allunyar la imatge; o en les fletxes verdes per a mapes adjacents.


METAR-TAF: